sensor_id;sensor_type;location;lat;lon;timestamp;P1;durP1;ratioP1;P2;durP2;ratioP2
23302;SDS011;11820;48.738;9.092;2023-04-10T00:00:00;12.60;;;10.33;;
23302;SDS011;11820;48.738;9.092;2023-04-10T00:02:25;12.67;;;11.30;;
23302;SDS011;11820;48.738;9.092;2023-04-10T00:04:50;12.23;;;11.00;;
23302;SDS011;11820;48.738;9.092;2023-04-10T00:07:16;11.47;;;10.27;;
23302;SDS011;11820;48.738;9.092;2023-04-10T00:09:41;12.47;;;10.93;;
23302;SDS011;11820;48.738;9.092;2023-04-10T00:12:06;12.27;;;10.57;;
23302;SDS011;11820;48.738;9.092;2023-04-10T00:14:32;11.70;;;9.80;;
23302;SDS011;11820;48.738;9.092;2023-04-10T00:16:57;14.40;;;10.57;;
23302;SDS011;11820;48.738;9.092;2023-04-10T00:19:22;13.13;;;10.67;;
23302;SDS011;11820;48.738;9.092;2023-04-10T00:21:48;12.23;;;11.03;;
23302;SDS011;11820;48.738;9.092;2023-04-10T00:24:13;12.77;;;10.90;;
23302;SDS011;11820;48.738;9.092;2023-04-10T00:26:39;13.17;;;10.73;;
23302;SDS011;11820;48.738;9.092;2023-04-10T00:29:04;13.57;;;11.17;;
23302;SDS011;11820;48.738;9.092;2023-04-10T00:31:30;12.20;;;10.63;;
23302;SDS011;11820;48.738;9.092;2023-04-10T00:33:56;11.80;;;10.30;;
23302;SDS011;11820;48.738;9.092;2023-04-10T00:36:21;13.17;;;10.53;;
23302;SDS011;11820;48.738;9.092;2023-04-10T00:38:47;11.07;;;9.50;;
23302;SDS011;11820;48.738;9.092;2023-04-10T00:41:13;11.10;;;9.57;;
23302;SDS011;11820;48.738;9.092;2023-04-10T00:43:39;10.57;;;9.40;;
23302;SDS011;11820;48.738;9.092;2023-04-10T00:46:04;11.20;;;10.10;;
23302;SDS011;11820;48.738;9.092;2023-04-10T00:48:31;10.97;;;9.87;;
23302;SDS011;11820;48.738;9.092;2023-04-10T00:50:56;11.70;;;9.47;;
23302;SDS011;11820;48.738;9.092;2023-04-10T00:53:22;11.50;;;10.03;;
23302;SDS011;11820;48.738;9.092;2023-04-10T00:55:48;11.43;;;10.33;;
23302;SDS011;11820;48.738;9.092;2023-04-10T00:58:14;12.73;;;9.97;;
23302;SDS011;11820;48.738;9.092;2023-04-10T01:00:40;11.10;;;9.87;;
23302;SDS011;11820;48.738;9.092;2023-04-10T01:03:06;11.33;;;10.13;;
23302;SDS011;11820;48.738;9.092;2023-04-10T01:06:20;11.37;;;9.63;;
23302;SDS011;11820;48.738;9.092;2023-04-10T01:11:34;11.23;;;10.03;;
23302;SDS011;11820;48.738;9.092;2023-04-10T01:14:08;11.90;;;10.60;;
23302;SDS011;11820;48.738;9.092;2023-04-10T01:16:50;10.87;;;9.77;;
23302;SDS011;11820;48.738;9.092;2023-04-10T01:19:24;12.83;;;10.33;;
23302;SDS011;11820;48.738;9.092;2023-04-10T01:22:25;11.67;;;10.43;;
23302;SDS011;11820;48.738;9.092;2023-04-10T01:31:07;12.37;;;9.97;;
23302;SDS011;11820;48.738;9.092;2023-04-10T01:33:44;11.60;;;9.87;;
23302;SDS011;11820;48.738;9.092;2023-04-10T01:36:24;11.87;;;10.17;;
23302;SDS011;11820;48.738;9.092;2023-04-10T01:38:55;12.30;;;10.73;;
23302;SDS011;11820;48.738;9.092;2023-04-10T01:41:22;13.50;;;10.07;;
23302;SDS011;11820;48.738;9.092;2023-04-10T01:43:49;11.03;;;9.50;;
23302;SDS011;11820;48.738;9.092;2023-04-10T01:46:19;11.90;;;10.63;;
23302;SDS011;11820;48.738;9.092;2023-04-10T01:48:46;13.33;;;10.73;;
23302;SDS011;11820;48.738;9.092;2023-04-10T01:51:13;12.07;;;10.83;;
23302;SDS011;11820;48.738;9.092;2023-04-10T01:53:40;12.63;;;10.50;;
23302;SDS011;11820;48.738;9.092;2023-04-10T01:56:10;11.83;;;10.53;;
23302;SDS011;11820;48.738;9.092;2023-04-10T01:58:37;13.63;;;10.53;;
23302;SDS011;11820;48.738;9.092;2023-04-10T02:01:02;13.30;;;10.30;;
23302;SDS011;11820;48.738;9.092;2023-04-10T02:03:27;12.73;;;10.43;;
23302;SDS011;11820;48.738;9.092;2023-04-10T02:08:33;11.37;;;10.17;;
23302;SDS011;11820;48.738;9.092;2023-04-10T02:13:53;10.97;;;9.27;;
23302;SDS011;11820;48.738;9.092;2023-04-10T02:16:23;12.63;;;10.37;;
23302;SDS011;11820;48.738;9.092;2023-04-10T02:18:49;11.77;;;10.17;;
23302;SDS011;11820;48.738;9.092;2023-04-10T02:21:16;12.40;;;10.07;;
23302;SDS011;11820;48.738;9.092;2023-04-10T02:23:41;11.77;;;10.20;;
23302;SDS011;11820;48.738;9.092;2023-04-10T02:26:07;13.57;;;10.90;;
23302;SDS011;11820;48.738;9.092;2023-04-10T02:28:33;12.87;;;10.87;;
23302;SDS011;11820;48.738;9.092;2023-04-10T02:30:58;12.77;;;10.80;;
23302;SDS011;11820;48.738;9.092;2023-04-10T02:33:24;11.90;;;10.27;;
23302;SDS011;11820;48.738;9.092;2023-04-10T02:35:49;13.70;;;10.83;;
23302;SDS011;11820;48.738;9.092;2023-04-10T02:38:14;13.77;;;10.77;;
23302;SDS011;11820;48.738;9.092;2023-04-10T02:40:40;11.23;;;10.03;;
23302;SDS011;11820;48.738;9.092;2023-04-10T02:43:05;12.23;;;10.23;;
23302;SDS011;11820;48.738;9.092;2023-04-10T02:45:30;11.67;;;10.33;;
23302;SDS011;11820;48.738;9.092;2023-04-10T02:47:57;12.90;;;10.13;;
23302;SDS011;11820;48.738;9.092;2023-04-10T02:50:22;11.13;;;9.87;;
23302;SDS011;11820;48.738;9.092;2023-04-10T02:52:48;10.70;;;9.40;;
23302;SDS011;11820;48.738;9.092;2023-04-10T02:55:13;10.40;;;9.30;;
23302;SDS011;11820;48.738;9.092;2023-04-10T02:57:39;13.53;;;8.83;;
23302;SDS011;11820;48.738;9.092;2023-04-10T03:00:05;9.63;;;8.63;;
23302;SDS011;11820;48.738;9.092;2023-04-10T03:02:31;9.53;;;8.53;;
23302;SDS011;11820;48.738;9.092;2023-04-10T03:04:57;9.03;;;8.13;;
23302;SDS011;11820;48.738;9.092;2023-04-10T03:07:24;9.03;;;8.03;;
23302;SDS011;11820;48.738;9.092;2023-04-10T03:09:49;8.83;;;7.93;;
23302;SDS011;11820;48.738;9.092;2023-04-10T03:12:15;12.47;;;8.80;;
23302;SDS011;11820;48.738;9.092;2023-04-10T03:14:40;9.70;;;8.70;;
23302;SDS011;11820;48.738;9.092;2023-04-10T03:17:06;11.57;;;8.37;;
23302;SDS011;11820;48.738;9.092;2023-04-10T03:19:31;12.20;;;9.43;;
23302;SDS011;11820;48.738;9.092;2023-04-10T03:21:56;10.60;;;9.50;;
23302;SDS011;11820;48.738;9.092;2023-04-10T03:24:22;11.50;;;10.30;;
23302;SDS011;11820;48.738;9.092;2023-04-10T03:26:47;11.93;;;9.90;;
23302;SDS011;11820;48.738;9.092;2023-04-10T03:29:12;11.23;;;10.13;;
23302;SDS011;11820;48.738;9.092;2023-04-10T03:31:42;11.70;;;9.50;;
23302;SDS011;11820;48.738;9.092;2023-04-10T03:34:08;11.37;;;9.50;;
23302;SDS011;11820;48.738;9.092;2023-04-10T03:36:33;12.13;;;9.37;;
23302;SDS011;11820;48.738;9.092;2023-04-10T03:38:58;12.40;;;10.30;;
23302;SDS011;11820;48.738;9.092;2023-04-10T03:41:24;11.43;;;10.23;;
23302;SDS011;11820;48.738;9.092;2023-04-10T03:43:49;11.17;;;9.60;;
23302;SDS011;11820;48.738;9.092;2023-04-10T03:46:14;12.07;;;9.80;;
23302;SDS011;11820;48.738;9.092;2023-04-10T03:48:40;12.13;;;10.47;;
23302;SDS011;11820;48.738;9.092;2023-04-10T03:51:05;10.83;;;9.57;;
23302;SDS011;11820;48.738;9.092;2023-04-10T03:53:31;11.07;;;9.37;;
23302;SDS011;11820;48.738;9.092;2023-04-10T03:56:00;11.43;;;10.23;;
23302;SDS011;11820;48.738;9.092;2023-04-10T03:58:25;12.10;;;9.57;;
23302;SDS011;11820;48.738;9.092;2023-04-10T04:00:51;11.37;;;9.70;;
23302;SDS011;11820;48.738;9.092;2023-04-10T04:03:16;13.07;;;10.63;;
23302;SDS011;11820;48.738;9.092;2023-04-10T04:05:41;13.80;;;10.97;;
23302;SDS011;11820;48.738;9.092;2023-04-10T04:08:07;12.03;;;10.00;;
23302;SDS011;11820;48.738;9.092;2023-04-10T04:10:32;11.17;;;9.97;;
23302;SDS011;11820;48.738;9.092;2023-04-10T04:12:57;12.00;;;10.17;;
23302;SDS011;11820;48.738;9.092;2023-04-10T04:15:23;13.33;;;11.07;;
23302;SDS011;11820;48.738;9.092;2023-04-10T04:17:48;12.40;;;10.57;;
23302;SDS011;11820;48.738;9.092;2023-04-10T04:20:14;12.60;;;10.83;;
23302;SDS011;11820;48.738;9.092;2023-04-10T04:22:39;14.50;;;11.20;;
23302;SDS011;11820;48.738;9.092;2023-04-10T04:25:05;14.27;;;11.53;;
23302;SDS011;11820;48.738;9.092;2023-04-10T04:27:34;11.43;;;10.23;;
23302;SDS011;11820;48.738;9.092;2023-04-10T04:30:00;14.13;;;11.10;;
23302;SDS011;11820;48.738;9.092;2023-04-10T04:32:26;12.83;;;10.50;;
23302;SDS011;11820;48.738;9.092;2023-04-10T04:34:52;15.63;;;10.90;;
23302;SDS011;11820;48.738;9.092;2023-04-10T04:37:17;12.90;;;11.10;;
23302;SDS011;11820;48.738;9.092;2023-04-10T04:39:42;12.10;;;10.80;;
23302;SDS011;11820;48.738;9.092;2023-04-10T04:42:08;12.47;;;10.47;;
23302;SDS011;11820;48.738;9.092;2023-04-10T04:44:33;11.83;;;10.47;;
23302;SDS011;11820;48.738;9.092;2023-04-10T04:46:59;12.43;;;9.97;;
23302;SDS011;11820;48.738;9.092;2023-04-10T04:49:24;12.03;;;9.93;;
23302;SDS011;11820;48.738;9.092;2023-04-10T04:51:50;10.67;;;9.57;;
23302;SDS011;11820;48.738;9.092;2023-04-10T04:54:15;11.53;;;10.07;;
23302;SDS011;11820;48.738;9.092;2023-04-10T04:56:40;12.10;;;10.00;;
23302;SDS011;11820;48.738;9.092;2023-04-10T04:59:06;11.57;;;9.17;;
23302;SDS011;11820;48.738;9.092;2023-04-10T05:01:31;11.70;;;9.93;;
23302;SDS011;11820;48.738;9.092;2023-04-10T05:03:56;11.13;;;9.87;;
23302;SDS011;11820;48.738;9.092;2023-04-10T05:06:21;10.20;;;9.10;;
23302;SDS011;11820;48.738;9.092;2023-04-10T05:08:47;9.97;;;8.93;;
23302;SDS011;11820;48.738;9.092;2023-04-10T05:11:12;11.17;;;9.30;;
23302;SDS011;11820;48.738;9.092;2023-04-10T05:13:37;12.77;;;10.43;;
23302;SDS011;11820;48.738;9.092;2023-04-10T05:16:03;11.47;;;9.97;;
23302;SDS011;11820;48.738;9.092;2023-04-10T05:18:28;12.00;;;10.27;;
23302;SDS011;11820;48.738;9.092;2023-04-10T05:20:54;11.83;;;9.43;;
23302;SDS011;11820;48.738;9.092;2023-04-10T05:23:19;11.00;;;9.90;;
23302;SDS011;11820;48.738;9.092;2023-04-10T05:25:45;11.57;;;9.97;;
23302;SDS011;11820;48.738;9.092;2023-04-10T05:28:10;11.13;;;9.90;;
23302;SDS011;11820;48.738;9.092;2023-04-10T05:30:36;14.57;;;9.97;;
23302;SDS011;11820;48.738;9.092;2023-04-10T05:33:01;12.07;;;10.00;;
23302;SDS011;11820;48.738;9.092;2023-04-10T05:35:26;12.50;;;10.50;;
23302;SDS011;11820;48.738;9.092;2023-04-10T05:37:52;12.10;;;10.13;;
23302;SDS011;11820;48.738;9.092;2023-04-10T05:40:17;12.90;;;10.10;;
23302;SDS011;11820;48.738;9.092;2023-04-10T05:42:42;11.17;;;9.87;;
23302;SDS011;11820;48.738;9.092;2023-04-10T05:45:08;10.70;;;9.60;;
23302;SDS011;11820;48.738;9.092;2023-04-10T05:47:33;11.73;;;9.57;;
23302;SDS011;11820;48.738;9.092;2023-04-10T05:49:58;10.90;;;9.27;;
23302;SDS011;11820;48.738;9.092;2023-04-10T05:52:24;12.90;;;10.43;;
23302;SDS011;11820;48.738;9.092;2023-04-10T05:54:50;11.90;;;10.33;;
23302;SDS011;11820;48.738;9.092;2023-04-10T05:57:16;11.77;;;10.53;;
23302;SDS011;11820;48.738;9.092;2023-04-10T05:59:42;11.07;;;9.53;;
23302;SDS011;11820;48.738;9.092;2023-04-10T06:02:07;10.80;;;9.53;;
23302;SDS011;11820;48.738;9.092;2023-04-10T06:04:32;12.20;;;9.37;;
23302;SDS011;11820;48.738;9.092;2023-04-10T06:06:57;11.40;;;9.50;;
23302;SDS011;11820;48.738;9.092;2023-04-10T06:09:23;10.90;;;9.37;;
23302;SDS011;11820;48.738;9.092;2023-04-10T06:11:49;9.73;;;8.70;;
23302;SDS011;11820;48.738;9.092;2023-04-10T06:14:14;10.87;;;9.27;;
23302;SDS011;11820;48.738;9.092;2023-04-10T06:16:39;10.70;;;9.57;;
23302;SDS011;11820;48.738;9.092;2023-04-10T06:19:05;10.00;;;9.00;;
23302;SDS011;11820;48.738;9.092;2023-04-10T06:21:30;10.70;;;9.43;;
23302;SDS011;11820;48.738;9.092;2023-04-10T06:23:56;9.97;;;8.87;;
23302;SDS011;11820;48.738;9.092;2023-04-10T06:26:21;12.43;;;9.07;;
23302;SDS011;11820;48.738;9.092;2023-04-10T06:28:48;10.77;;;9.33;;
23302;SDS011;11820;48.738;9.092;2023-04-10T06:31:13;12.53;;;9.20;;
23302;SDS011;11820;48.738;9.092;2023-04-10T06:33:39;10.03;;;9.00;;
23302;SDS011;11820;48.738;9.092;2023-04-10T06:36:04;10.10;;;9.10;;
23302;SDS011;11820;48.738;9.092;2023-04-10T06:38:30;13.07;;;9.97;;
23302;SDS011;11820;48.738;9.092;2023-04-10T06:40:58;10.97;;;9.60;;
23302;SDS011;11820;48.738;9.092;2023-04-10T06:43:23;12.47;;;8.87;;
23302;SDS011;11820;48.738;9.092;2023-04-10T06:45:48;11.03;;;9.57;;
23302;SDS011;11820;48.738;9.092;2023-04-10T06:48:13;11.13;;;8.70;;
23302;SDS011;11820;48.738;9.092;2023-04-10T06:50:39;11.47;;;10.03;;
23302;SDS011;11820;48.738;9.092;2023-04-10T06:53:05;11.37;;;9.10;;
23302;SDS011;11820;48.738;9.092;2023-04-10T06:55:30;12.00;;;8.90;;
23302;SDS011;11820;48.738;9.092;2023-04-10T06:57:55;11.70;;;9.33;;
23302;SDS011;11820;48.738;9.092;2023-04-10T07:00:21;9.40;;;8.40;;
23302;SDS011;11820;48.738;9.092;2023-04-10T07:02:47;9.50;;;8.33;;
23302;SDS011;11820;48.738;9.092;2023-04-10T07:05:12;10.10;;;8.47;;
23302;SDS011;11820;48.738;9.092;2023-04-10T07:07:38;9.40;;;8.30;;
23302;SDS011;11820;48.738;9.092;2023-04-10T07:10:03;9.17;;;8.27;;
23302;SDS011;11820;48.738;9.092;2023-04-10T07:12:29;11.40;;;9.20;;
23302;SDS011;11820;48.738;9.092;2023-04-10T07:14:54;9.63;;;7.83;;
23302;SDS011;11820;48.738;9.092;2023-04-10T07:17:20;9.47;;;8.57;;
23302;SDS011;11820;48.738;9.092;2023-04-10T07:19:46;10.23;;;8.70;;
23302;SDS011;11820;48.738;9.092;2023-04-10T07:22:11;8.57;;;7.67;;
23302;SDS011;11820;48.738;9.092;2023-04-10T07:24:37;9.33;;;8.03;;
23302;SDS011;11820;48.738;9.092;2023-04-10T07:27:02;8.83;;;7.83;;
23302;SDS011;11820;48.738;9.092;2023-04-10T07:29:27;8.27;;;6.97;;
23302;SDS011;11820;48.738;9.092;2023-04-10T07:31:53;10.10;;;8.03;;
23302;SDS011;11820;48.738;9.092;2023-04-10T07:34:18;7.97;;;7.07;;
23302;SDS011;11820;48.738;9.092;2023-04-10T07:36:43;8.00;;;6.80;;
23302;SDS011;11820;48.738;9.092;2023-04-10T07:39:09;7.47;;;6.40;;
23302;SDS011;11820;48.738;9.092;2023-04-10T07:41:34;8.53;;;7.40;;
23302;SDS011;11820;48.738;9.092;2023-04-10T07:43:59;7.13;;;6.43;;
23302;SDS011;11820;48.738;9.092;2023-04-10T07:46:25;8.23;;;7.30;;
23302;SDS011;11820;48.738;9.092;2023-04-10T07:48:51;7.57;;;6.40;;
23302;SDS011;11820;48.738;9.092;2023-04-10T07:51:16;6.77;;;5.90;;
23302;SDS011;11820;48.738;9.092;2023-04-10T07:53:42;8.20;;;7.40;;
23302;SDS011;11820;48.738;9.092;2023-04-10T07:56:13;6.97;;;5.73;;
23302;SDS011;11820;48.738;9.092;2023-04-10T07:58:42;7.07;;;6.13;;
23302;SDS011;11820;48.738;9.092;2023-04-10T08:01:07;5.77;;;5.27;;
23302;SDS011;11820;48.738;9.092;2023-04-10T08:03:36;6.80;;;6.10;;
23302;SDS011;11820;48.738;9.092;2023-04-10T08:06:06;6.10;;;5.37;;
23302;SDS011;11820;48.738;9.092;2023-04-10T08:08:34;6.07;;;5.47;;
23302;SDS011;11820;48.738;9.092;2023-04-10T08:11:05;5.80;;;5.30;;
23302;SDS011;11820;48.738;9.092;2023-04-10T08:13:32;5.37;;;4.87;;
23302;SDS011;11820;48.738;9.092;2023-04-10T08:15:58;4.83;;;4.40;;
23302;SDS011;11820;48.738;9.092;2023-04-10T08:18:23;5.37;;;4.50;;
23302;SDS011;11820;48.738;9.092;2023-04-10T08:20:49;6.90;;;5.13;;
23302;SDS011;11820;48.738;9.092;2023-04-10T08:23:14;5.87;;;4.80;;
23302;SDS011;11820;48.738;9.092;2023-04-10T08:25:40;5.07;;;4.57;;
23302;SDS011;11820;48.738;9.092;2023-04-10T08:28:05;5.37;;;4.47;;
23302;SDS011;11820;48.738;9.092;2023-04-10T08:30:30;4.93;;;4.43;;
23302;SDS011;11820;48.738;9.092;2023-04-10T08:32:55;4.77;;;4.03;;
23302;SDS011;11820;48.738;9.092;2023-04-10T08:35:21;4.37;;;3.80;;
23302;SDS011;11820;48.738;9.092;2023-04-10T08:37:46;5.00;;;4.40;;
23302;SDS011;11820;48.738;9.092;2023-04-10T08:40:11;5.23;;;4.73;;
23302;SDS011;11820;48.738;9.092;2023-04-10T08:42:37;4.33;;;3.63;;
23302;SDS011;11820;48.738;9.092;2023-04-10T08:45:02;3.77;;;3.40;;
23302;SDS011;11820;48.738;9.092;2023-04-10T08:47:28;5.03;;;3.53;;
23302;SDS011;11820;48.738;9.092;2023-04-10T08:49:59;3.50;;;3.20;;
23302;SDS011;11820;48.738;9.092;2023-04-10T08:52:29;4.00;;;3.40;;
23302;SDS011;11820;48.738;9.092;2023-04-10T08:54:58;3.43;;;3.13;;
23302;SDS011;11820;48.738;9.092;2023-04-10T08:57:26;3.33;;;3.03;;
23302;SDS011;11820;48.738;9.092;2023-04-10T08:59:52;4.00;;;3.60;;
23302;SDS011;11820;48.738;9.092;2023-04-10T09:02:18;4.60;;;3.40;;
23302;SDS011;11820;48.738;9.092;2023-04-10T09:04:46;3.60;;;3.03;;
23302;SDS011;11820;48.738;9.092;2023-04-10T09:07:16;3.20;;;2.90;;
23302;SDS011;11820;48.738;9.092;2023-04-10T09:09:41;3.57;;;3.27;;
23302;SDS011;11820;48.738;9.092;2023-04-10T09:12:07;4.20;;;3.73;;
23302;SDS011;11820;48.738;9.092;2023-04-10T09:14:33;3.83;;;3.00;;
23302;SDS011;11820;48.738;9.092;2023-04-10T09:17:12;3.23;;;2.93;;
23302;SDS011;11820;48.738;9.092;2023-04-10T09:19:38;3.67;;;3.00;;
23302;SDS011;11820;48.738;9.092;2023-04-10T09:22:04;3.93;;;3.03;;
23302;SDS011;11820;48.738;9.092;2023-04-10T09:24:29;3.10;;;2.80;;
23302;SDS011;11820;48.738;9.092;2023-04-10T09:26:54;2.83;;;2.60;;
23302;SDS011;11820;48.738;9.092;2023-04-10T09:29:20;3.07;;;2.77;;
23302;SDS011;11820;48.738;9.092;2023-04-10T09:31:45;3.37;;;3.07;;
23302;SDS011;11820;48.738;9.092;2023-04-10T09:39:37;3.63;;;2.50;;
23302;SDS011;11820;48.738;9.092;2023-04-10T09:42:07;3.17;;;2.90;;
23302;SDS011;11820;48.738;9.092;2023-04-10T09:44:38;3.37;;;2.40;;
23302;SDS011;11820;48.738;9.092;2023-04-10T09:47:14;3.90;;;2.63;;
23302;SDS011;11820;48.738;9.092;2023-04-10T09:49:45;2.87;;;2.67;;
23302;SDS011;11820;48.738;9.092;2023-04-10T09:52:16;3.13;;;2.83;;
23302;SDS011;11820;48.738;9.092;2023-04-10T09:54:42;3.00;;;2.80;;
23302;SDS011;11820;48.738;9.092;2023-04-10T09:57:08;2.87;;;2.67;;
23302;SDS011;11820;48.738;9.092;2023-04-10T09:59:34;3.37;;;2.70;;
23302;SDS011;11820;48.738;9.092;2023-04-10T10:02:02;2.00;;;1.90;;
23302;SDS011;11820;48.738;9.092;2023-04-10T10:04:28;3.40;;;3.10;;
23302;SDS011;11820;48.738;9.092;2023-04-10T10:06:54;2.80;;;2.60;;
23302;SDS011;11820;48.738;9.092;2023-04-10T10:09:20;2.97;;;2.73;;
23302;SDS011;11820;48.738;9.092;2023-04-10T10:11:45;2.47;;;2.27;;
23302;SDS011;11820;48.738;9.092;2023-04-10T10:14:14;2.77;;;2.33;;
23302;SDS011;11820;48.738;9.092;2023-04-10T10:16:45;2.60;;;2.37;;
23302;SDS011;11820;48.738;9.092;2023-04-10T10:21:51;2.60;;;2.40;;
23302;SDS011;11820;48.738;9.092;2023-04-10T10:24:18;2.83;;;2.63;;
23302;SDS011;11820;48.738;9.092;2023-04-10T10:26:45;2.90;;;2.57;;
23302;SDS011;11820;48.738;9.092;2023-04-10T10:29:11;2.77;;;2.47;;
23302;SDS011;11820;48.738;9.092;2023-04-10T10:31:39;3.17;;;2.40;;
23302;SDS011;11820;48.738;9.092;2023-04-10T10:34:05;2.67;;;2.20;;
23302;SDS011;11820;48.738;9.092;2023-04-10T10:36:37;2.37;;;2.17;;
23302;SDS011;11820;48.738;9.092;2023-04-10T10:47:13;3.17;;;2.10;;
23302;SDS011;11820;48.738;9.092;2023-04-10T10:49:58;1.87;;;1.77;;
23302;SDS011;11820;48.738;9.092;2023-04-10T10:57:59;1.60;;;1.50;;
23302;SDS011;11820;48.738;9.092;2023-04-10T11:08:34;1.37;;;1.27;;
23302;SDS011;11820;48.738;9.092;2023-04-10T11:16:21;1.20;;;1.10;;
23302;SDS011;11820;48.738;9.092;2023-04-10T11:21:17;1.37;;;1.27;;
23302;SDS011;11820;48.738;9.092;2023-04-10T11:31:28;1.60;;;1.50;;
23302;SDS011;11820;48.738;9.092;2023-04-10T11:36:21;0.97;;;0.97;;
23302;SDS011;11820;48.738;9.092;2023-04-10T11:39:00;1.70;;;1.23;;
23302;SDS011;11820;48.738;9.092;2023-04-10T11:41:30;1.10;;;1.00;;
23302;SDS011;11820;48.738;9.092;2023-04-10T11:43:58;1.33;;;1.23;;
23302;SDS011;11820;48.738;9.092;2023-04-10T11:46:25;1.10;;;1.00;;
23302;SDS011;11820;48.738;9.092;2023-04-10T11:48:51;0.97;;;0.93;;
23302;SDS011;11820;48.738;9.092;2023-04-10T11:51:17;1.00;;;0.90;;
23302;SDS011;11820;48.738;9.092;2023-04-10T11:53:43;1.30;;;1.20;;
23302;SDS011;11820;48.738;9.092;2023-04-10T11:56:15;1.83;;;1.13;;
23302;SDS011;11820;48.738;9.092;2023-04-10T11:58:41;1.00;;;1.00;;
23302;SDS011;11820;48.738;9.092;2023-04-10T12:01:07;1.03;;;0.93;;
23302;SDS011;11820;48.738;9.092;2023-04-10T12:03:38;2.10;;;0.70;;
23302;SDS011;11820;48.738;9.092;2023-04-10T12:06:06;0.90;;;0.90;;
23302;SDS011;11820;48.738;9.092;2023-04-10T12:08:35;0.90;;;0.90;;
23302;SDS011;11820;48.738;9.092;2023-04-10T12:11:02;0.97;;;0.90;;
23302;SDS011;11820;48.738;9.092;2023-04-10T12:13:27;1.00;;;0.90;;
23302;SDS011;11820;48.738;9.092;2023-04-10T12:15:56;1.10;;;1.00;;
23302;SDS011;11820;48.738;9.092;2023-04-10T12:18:26;1.50;;;1.40;;
23302;SDS011;11820;48.738;9.092;2023-04-10T12:20:53;0.90;;;0.90;;
23302;SDS011;11820;48.738;9.092;2023-04-10T12:23:21;1.87;;;1.50;;
23302;SDS011;11820;48.738;9.092;2023-04-10T12:25:48;1.43;;;1.33;;
23302;SDS011;11820;48.738;9.092;2023-04-10T12:28:18;0.90;;;0.90;;
23302;SDS011;11820;48.738;9.092;2023-04-10T12:30:46;1.03;;;0.93;;
23302;SDS011;11820;48.738;9.092;2023-04-10T12:33:21;1.73;;;1.27;;
23302;SDS011;11820;48.738;9.092;2023-04-10T12:35:46;0.77;;;0.77;;
23302;SDS011;11820;48.738;9.092;2023-04-10T12:38:12;1.27;;;1.17;;
23302;SDS011;11820;48.738;9.092;2023-04-10T12:40:37;1.00;;;0.90;;
23302;SDS011;11820;48.738;9.092;2023-04-10T12:43:04;0.90;;;0.90;;
23302;SDS011;11820;48.738;9.092;2023-04-10T12:45:45;0.80;;;0.80;;
23302;SDS011;11820;48.738;9.092;2023-04-10T12:48:10;0.90;;;0.90;;
23302;SDS011;11820;48.738;9.092;2023-04-10T12:50:45;0.87;;;0.87;;
23302;SDS011;11820;48.738;9.092;2023-04-10T12:53:13;1.37;;;0.90;;
23302;SDS011;11820;48.738;9.092;2023-04-10T12:55:39;1.20;;;1.10;;
23302;SDS011;11820;48.738;9.092;2023-04-10T12:58:15;1.37;;;1.23;;
23302;SDS011;11820;48.738;9.092;2023-04-10T13:00:44;1.50;;;1.40;;
23302;SDS011;11820;48.738;9.092;2023-04-10T13:03:10;1.93;;;1.17;;
23302;SDS011;11820;48.738;9.092;2023-04-10T13:05:36;0.93;;;0.93;;
23302;SDS011;11820;48.738;9.092;2023-04-10T13:08:01;0.90;;;0.80;;
23302;SDS011;11820;48.738;9.092;2023-04-10T13:10:27;2.67;;;0.90;;
23302;SDS011;11820;48.738;9.092;2023-04-10T13:12:52;1.13;;;1.03;;
23302;SDS011;11820;48.738;9.092;2023-04-10T13:15:17;1.43;;;0.93;;
23302;SDS011;11820;48.738;9.092;2023-04-10T13:17:43;0.97;;;0.97;;
23302;SDS011;11820;48.738;9.092;2023-04-10T13:20:09;1.50;;;1.10;;
23302;SDS011;11820;48.738;9.092;2023-04-10T13:22:35;1.33;;;1.23;;
23302;SDS011;11820;48.738;9.092;2023-04-10T13:25:00;1.47;;;1.37;;
23302;SDS011;11820;48.738;9.092;2023-04-10T13:27:27;1.30;;;1.20;;
23302;SDS011;11820;48.738;9.092;2023-04-10T13:29:52;1.00;;;1.00;;
23302;SDS011;11820;48.738;9.092;2023-04-10T13:32:18;1.30;;;1.20;;
23302;SDS011;11820;48.738;9.092;2023-04-10T13:34:43;1.03;;;0.93;;
23302;SDS011;11820;48.738;9.092;2023-04-10T13:37:09;1.23;;;1.13;;
23302;SDS011;11820;48.738;9.092;2023-04-10T13:39:37;1.33;;;1.10;;
23302;SDS011;11820;48.738;9.092;2023-04-10T13:42:02;1.60;;;1.50;;
23302;SDS011;11820;48.738;9.092;2023-04-10T13:44:27;3.83;;;1.10;;
23302;SDS011;11820;48.738;9.092;2023-04-10T13:46:53;1.40;;;1.30;;
23302;SDS011;11820;48.738;9.092;2023-04-10T13:49:18;1.30;;;1.20;;
23302;SDS011;11820;48.738;9.092;2023-04-10T13:51:45;1.27;;;1.17;;
23302;SDS011;11820;48.738;9.092;2023-04-10T13:54:11;2.60;;;1.10;;
23302;SDS011;11820;48.738;9.092;2023-04-10T13:56:36;1.20;;;1.10;;
23302;SDS011;11820;48.738;9.092;2023-04-10T13:59:03;0.90;;;0.90;;
23302;SDS011;11820;48.738;9.092;2023-04-10T14:01:29;1.13;;;1.10;;
23302;SDS011;11820;48.738;9.092;2023-04-10T14:03:54;1.30;;;1.20;;
23302;SDS011;11820;48.738;9.092;2023-04-10T14:06:20;1.10;;;1.10;;
23302;SDS011;11820;48.738;9.092;2023-04-10T14:08:45;2.03;;;1.00;;
23302;SDS011;11820;48.738;9.092;2023-04-10T14:11:10;1.10;;;1.00;;
23302;SDS011;11820;48.738;9.092;2023-04-10T14:13:36;1.20;;;1.10;;
23302;SDS011;11820;48.738;9.092;2023-04-10T14:16:01;1.27;;;1.07;;
23302;SDS011;11820;48.738;9.092;2023-04-10T14:18:28;1.20;;;1.10;;
23302;SDS011;11820;48.738;9.092;2023-04-10T14:20:53;3.53;;;1.50;;
23302;SDS011;11820;48.738;9.092;2023-04-10T14:23:18;1.00;;;0.97;;
23302;SDS011;11820;48.738;9.092;2023-04-10T14:25:44;1.33;;;1.10;;
23302;SDS011;11820;48.738;9.092;2023-04-10T14:28:10;1.20;;;1.10;;
23302;SDS011;11820;48.738;9.092;2023-04-10T14:30:45;1.80;;;1.17;;
23302;SDS011;11820;48.738;9.092;2023-04-10T14:33:12;1.13;;;1.03;;
23302;SDS011;11820;48.738;9.092;2023-04-10T14:35:37;1.17;;;1.07;;
23302;SDS011;11820;48.738;9.092;2023-04-10T14:38:03;1.07;;;1.00;;
23302;SDS011;11820;48.738;9.092;2023-04-10T14:40:28;1.30;;;1.10;;
23302;SDS011;11820;48.738;9.092;2023-04-10T14:42:53;1.50;;;1.40;;
23302;SDS011;11820;48.738;9.092;2023-04-10T14:45:19;1.03;;;0.93;;
23302;SDS011;11820;48.738;9.092;2023-04-10T14:47:44;1.37;;;1.20;;
23302;SDS011;11820;48.738;9.092;2023-04-10T14:50:11;1.70;;;1.47;;
23302;SDS011;11820;48.738;9.092;2023-04-10T14:52:37;1.13;;;1.03;;
23302;SDS011;11820;48.738;9.092;2023-04-10T14:55:02;1.10;;;1.00;;
23302;SDS011;11820;48.738;9.092;2023-04-10T14:57:27;1.33;;;1.17;;
23302;SDS011;11820;48.738;9.092;2023-04-10T14:59:56;0.97;;;0.90;;
23302;SDS011;11820;48.738;9.092;2023-04-10T15:02:21;2.27;;;0.90;;
23302;SDS011;11820;48.738;9.092;2023-04-10T15:04:46;1.20;;;1.10;;
23302;SDS011;11820;48.738;9.092;2023-04-10T15:07:12;1.10;;;1.00;;
23302;SDS011;11820;48.738;9.092;2023-04-10T15:09:38;1.00;;;0.90;;
23302;SDS011;11820;48.738;9.092;2023-04-10T15:12:04;1.47;;;1.27;;
23302;SDS011;11820;48.738;9.092;2023-04-10T15:14:30;1.40;;;1.30;;
23302;SDS011;11820;48.738;9.092;2023-04-10T15:16:55;1.67;;;1.37;;
23302;SDS011;11820;48.738;9.092;2023-04-10T15:19:20;0.80;;;0.80;;
23302;SDS011;11820;48.738;9.092;2023-04-10T15:21:46;1.10;;;0.80;;
23302;SDS011;11820;48.738;9.092;2023-04-10T15:24:11;0.80;;;0.80;;
23302;SDS011;11820;48.738;9.092;2023-04-10T15:26:41;0.80;;;0.80;;
23302;SDS011;11820;48.738;9.092;2023-04-10T15:29:07;0.80;;;0.80;;
23302;SDS011;11820;48.738;9.092;2023-04-10T15:31:32;1.10;;;1.00;;
23302;SDS011;11820;48.738;9.092;2023-04-10T15:33:57;2.63;;;1.00;;
23302;SDS011;11820;48.738;9.092;2023-04-10T15:36:23;0.83;;;0.83;;